KGIF/GIF METAR and TAF weather

Enter ICAO airport designator
Station Type Date Time Source
KGIF METAR 2019/04/23 03:53 UTC NOAA

KGIF 230353Z AUTO 12006KT 10SM CLR 19/13 A3015 RMK AO2 SLP208 T01940128 $


Station Type Date Time Source
KGIF Decoded METAR 2019/04/23 03:53 UTC NOAA

WINTER HAVENS GILBERT AIRPORT , FL, United States (KGIF) 28-04N 81-45W 43M
Apr 22, 2019 - 11:53 PM EDT / 2019.04.23 0353 UTC
Wind: from the ESE (120 degrees) at 7 MPH (6 KT):0
Visibility: 10 mile(s):0
Sky conditions: clear
Temperature: 66.9 F (19.4 C)
Dew Point: 55.0 F (12.8 C)
Relative Humidity: 65%
Pressure (altimeter): 30.15 in. Hg (1020 hPa)
ob: KGIF 230353Z AUTO 12006KT 10SM CLR 19/13 A3015 RMK AO2 SLP208 T01940128
cycle: 4

Station Type Date Time Source
KGIF TAF UTC NOAA

Error!

Example: see airport list